createdAt,value
2023-05-19T00:01:33.150Z,9.85
2023-05-19T00:04:05.346Z,7.30
2023-05-19T00:06:33.489Z,6.60
2023-05-19T00:09:03.693Z,6.70
2023-05-19T00:11:31.447Z,6.88
2023-05-19T00:14:00.275Z,8.68
2023-05-19T00:16:29.317Z,9.23
2023-05-19T00:19:00.546Z,10.07
2023-05-19T00:21:28.958Z,7.45
2023-05-19T00:24:04.383Z,9.57
2023-05-19T00:26:32.040Z,10.55
2023-05-19T00:29:05.781Z,7.80
2023-05-19T00:31:34.557Z,9.00
2023-05-19T00:34:02.205Z,7.80
2023-05-19T00:36:31.182Z,8.25
2023-05-19T00:38:58.418Z,10.68
2023-05-19T00:41:26.395Z,6.93
2023-05-19T00:43:55.350Z,8.45
2023-05-19T00:46:23.224Z,10.90
2023-05-19T00:48:50.550Z,9.07
2023-05-19T00:51:18.499Z,10.88
2023-05-19T00:53:49.486Z,8.40
2023-05-19T00:56:17.549Z,9.57
2023-05-19T00:58:45.657Z,8.23
2023-05-19T01:01:14.676Z,8.95
2023-05-19T01:03:44.089Z,8.40
2023-05-19T01:06:12.333Z,8.50
2023-05-19T01:08:40.212Z,9.57
2023-05-19T01:11:08.827Z,7.85
2023-05-19T01:13:38.141Z,11.05
2023-05-19T01:16:21.517Z,6.50
2023-05-19T01:19:25.725Z,9.25
2023-05-19T01:22:23.216Z,9.60
2023-05-19T01:25:13.320Z,8.13
2023-05-19T01:28:07.128Z,6.25
2023-05-19T01:30:40.062Z,12.95
2023-05-19T01:33:10.282Z,8.80
2023-05-19T01:35:41.100Z,7.60
2023-05-19T01:38:10.228Z,11.00
2023-05-19T01:40:39.820Z,7.90
2023-05-19T01:43:09.752Z,10.10
2023-05-19T01:45:37.676Z,7.38
2023-05-19T01:48:06.339Z,7.88
2023-05-19T01:50:35.095Z,11.40
2023-05-19T01:53:02.591Z,6.97
2023-05-19T01:55:30.004Z,7.97
2023-05-19T01:58:16.679Z,6.90
2023-05-19T02:01:04.193Z,8.05
2023-05-19T02:03:44.016Z,7.30
2023-05-19T02:06:19.897Z,12.07
2023-05-19T02:08:52.237Z,10.85
2023-05-19T02:11:40.416Z,10.65
2023-05-19T02:14:21.545Z,10.07
2023-05-19T02:16:49.298Z,11.25
2023-05-19T02:19:28.396Z,7.85
2023-05-19T02:21:56.615Z,8.90
2023-05-19T02:24:24.079Z,8.65
2023-05-19T02:26:52.583Z,14.23
2023-05-19T02:29:22.952Z,7.60
2023-05-19T02:31:51.035Z,9.00
2023-05-19T02:34:19.568Z,7.78
2023-05-19T02:36:50.175Z,8.02
2023-05-19T02:39:17.830Z,6.63
2023-05-19T02:41:45.125Z,7.03
2023-05-19T02:44:12.543Z,8.50
2023-05-19T02:46:40.026Z,8.63
2023-05-19T02:49:08.002Z,7.78
2023-05-19T02:51:35.562Z,7.60
2023-05-19T02:54:02.850Z,8.90
2023-05-19T02:56:30.199Z,10.98
2023-05-19T02:58:58.603Z,6.75
2023-05-19T03:01:25.978Z,9.80
2023-05-19T03:03:53.560Z,7.63
2023-05-19T03:06:23.693Z,7.53
2023-05-19T03:08:51.471Z,9.00
2023-05-19T03:11:18.951Z,10.95
2023-05-19T03:13:46.331Z,10.25
2023-05-19T03:16:14.210Z,10.18
2023-05-19T03:18:43.360Z,7.75
2023-05-19T03:21:10.930Z,8.23
2023-05-19T03:23:38.136Z,9.82
2023-05-19T03:26:06.340Z,7.35
2023-05-19T03:28:33.748Z,10.25
2023-05-19T03:31:01.292Z,8.77
2023-05-19T03:33:34.074Z,8.30
2023-05-19T03:36:02.210Z,9.90
2023-05-19T03:38:33.542Z,9.15
2023-05-19T03:41:01.232Z,7.47
2023-05-19T03:43:29.765Z,12.15
2023-05-19T03:46:02.373Z,7.18
2023-05-19T03:48:56.275Z,9.27
2023-05-19T03:51:35.215Z,7.25
2023-05-19T03:54:23.066Z,6.35
2023-05-19T03:56:52.217Z,7.95
2023-05-19T03:59:19.919Z,8.65
2023-05-19T04:01:47.888Z,7.97
2023-05-19T04:04:15.475Z,11.68
2023-05-19T04:06:43.121Z,9.93
2023-05-19T04:09:15.269Z,7.35
2023-05-19T04:11:43.506Z,8.05
2023-05-19T04:14:11.102Z,14.80
2023-05-19T04:16:38.536Z,7.25
2023-05-19T04:19:06.062Z,7.28
2023-05-19T04:21:36.030Z,8.93
2023-05-19T04:24:06.717Z,9.27
2023-05-19T04:29:04.669Z,10.18
2023-05-19T04:31:34.617Z,8.63
2023-05-19T04:34:03.544Z,6.28
2023-05-19T04:36:31.328Z,8.43
2023-05-19T04:39:02.888Z,8.73
2023-05-19T04:41:31.698Z,10.75
2023-05-19T04:43:59.005Z,8.68
2023-05-19T04:46:27.488Z,11.32
2023-05-19T04:48:57.316Z,10.32
2023-05-19T04:51:31.910Z,7.80
2023-05-19T04:54:01.692Z,6.57
2023-05-19T04:56:30.244Z,10.00
2023-05-19T04:58:58.206Z,10.02
2023-05-19T05:01:27.626Z,8.70
2023-05-19T05:03:56.251Z,10.63
2023-05-19T05:06:23.493Z,7.30
2023-05-19T05:08:51.720Z,10.80
2023-05-19T05:11:19.613Z,7.55
2023-05-19T05:13:47.900Z,8.25
2023-05-19T05:16:16.009Z,7.45
2023-05-19T05:18:44.989Z,7.93
2023-05-19T05:21:13.089Z,7.78
2023-05-19T05:23:41.208Z,8.38
2023-05-19T05:26:19.224Z,9.88
2023-05-19T05:28:49.374Z,7.28
2023-05-19T05:31:18.562Z,7.22
2023-05-19T05:33:46.124Z,7.38
2023-05-19T05:36:14.858Z,7.47
2023-05-19T05:38:42.362Z,10.63
2023-05-19T05:41:09.769Z,7.68
2023-05-19T05:43:37.941Z,10.23
2023-05-19T05:46:05.719Z,10.52
2023-05-19T05:48:33.448Z,9.07
2023-05-19T05:51:01.351Z,10.18
2023-05-19T05:53:37.392Z,12.57
2023-05-19T05:56:05.290Z,11.65
2023-05-19T05:58:41.982Z,11.80
2023-05-19T06:01:11.451Z,9.32
2023-05-19T06:03:44.552Z,9.80
2023-05-19T06:06:14.953Z,15.55
2023-05-19T06:08:42.328Z,11.90
2023-05-19T06:11:09.995Z,16.45
2023-05-19T06:13:41.595Z,13.90
2023-05-19T06:16:13.805Z,12.05
2023-05-19T06:18:47.046Z,16.55
2023-05-19T06:21:14.734Z,15.82
2023-05-19T06:23:42.779Z,11.23
2023-05-19T06:26:12.861Z,13.02
2023-05-19T06:28:40.129Z,11.23
2023-05-19T06:31:07.593Z,12.35
2023-05-19T06:33:46.097Z,14.77
2023-05-19T06:36:14.004Z,14.82
2023-05-19T06:38:43.224Z,13.65
2023-05-19T06:41:10.985Z,12.45
2023-05-19T06:43:38.645Z,12.80
2023-05-19T06:46:06.059Z,16.60
2023-05-19T06:48:34.268Z,18.25
2023-05-19T06:51:03.038Z,15.27
2023-05-19T06:53:32.236Z,13.20
2023-05-19T06:56:00.388Z,15.00
2023-05-19T06:58:34.362Z,20.05
2023-05-19T07:01:04.641Z,12.45
2023-05-19T07:03:37.429Z,14.63
2023-05-19T07:06:07.066Z,17.00
2023-05-19T07:08:37.403Z,17.20
2023-05-19T07:11:06.494Z,17.40
2023-05-19T07:13:35.025Z,16.08
2023-05-19T07:16:02.291Z,16.58
2023-05-19T07:18:32.877Z,12.93
2023-05-19T07:21:00.213Z,12.88
2023-05-19T07:23:28.068Z,10.40
2023-05-19T07:25:56.788Z,14.70
2023-05-19T07:28:24.373Z,15.98
2023-05-19T07:30:52.293Z,16.13
2023-05-19T07:33:19.562Z,14.68
2023-05-19T07:35:47.224Z,13.70
2023-05-19T07:38:14.477Z,13.07
2023-05-19T07:40:41.848Z,12.23
2023-05-19T07:43:09.471Z,10.68
2023-05-19T07:45:37.088Z,15.18
2023-05-19T07:48:04.827Z,12.73
2023-05-19T07:50:32.684Z,11.50
2023-05-19T07:53:00.256Z,12.68
2023-05-19T07:55:27.594Z,9.75
2023-05-19T07:57:54.945Z,11.38
2023-05-19T08:00:22.749Z,13.85
2023-05-19T08:02:50.293Z,9.25
2023-05-19T08:05:17.809Z,11.68
2023-05-19T08:07:45.315Z,11.25
2023-05-19T08:10:12.670Z,10.20
2023-05-19T08:12:40.219Z,13.57
2023-05-19T08:15:08.212Z,9.73
2023-05-19T08:17:35.944Z,13.40
2023-05-19T08:20:05.393Z,10.10
2023-05-19T08:22:32.792Z,11.80
2023-05-19T08:25:00.126Z,10.13
2023-05-19T08:27:27.470Z,15.77
2023-05-19T08:29:55.526Z,12.40
2023-05-19T08:32:22.881Z,11.82
2023-05-19T08:34:50.223Z,12.65
2023-05-19T08:37:17.458Z,12.48
2023-05-19T08:39:44.824Z,11.27
2023-05-19T08:42:12.675Z,12.05
2023-05-19T08:44:41.728Z,12.43
2023-05-19T08:47:13.904Z,12.20
2023-05-19T08:49:46.334Z,15.77
2023-05-19T08:52:28.599Z,12.00
2023-05-19T08:55:09.756Z,10.20
2023-05-19T08:57:38.442Z,10.30
2023-05-19T09:00:12.550Z,11.77
2023-05-19T09:02:50.583Z,8.38
2023-05-19T09:05:28.775Z,10.55
2023-05-19T09:07:57.231Z,10.57
2023-05-19T09:10:25.282Z,13.02
2023-05-19T09:12:54.042Z,10.25
2023-05-19T09:15:23.051Z,7.90
2023-05-19T09:17:50.664Z,11.25
2023-05-19T09:20:18.180Z,12.25
2023-05-19T09:22:47.498Z,9.18
2023-05-19T09:25:28.162Z,11.20
2023-05-19T09:27:56.296Z,10.52
2023-05-19T09:30:24.470Z,8.98
2023-05-19T09:32:54.111Z,9.18
2023-05-19T09:35:21.754Z,9.02
2023-05-19T09:37:49.104Z,11.90
2023-05-19T09:40:16.679Z,12.52
2023-05-19T09:42:46.497Z,10.52
2023-05-19T09:45:13.983Z,10.60
2023-05-19T09:47:42.394Z,11.23
2023-05-19T09:50:12.054Z,9.27
2023-05-19T09:52:40.906Z,7.40
2023-05-19T09:55:13.104Z,11.23
2023-05-19T09:57:41.589Z,10.82
2023-05-19T10:00:19.970Z,11.15
2023-05-19T10:02:48.742Z,11.32
2023-05-19T10:05:20.263Z,10.95
2023-05-19T10:07:51.689Z,11.40
2023-05-19T10:10:22.487Z,10.75
2023-05-19T10:12:50.114Z,9.00
2023-05-19T10:15:22.152Z,14.43
2023-05-19T10:17:51.552Z,15.15
2023-05-19T10:20:19.382Z,11.45
2023-05-19T10:22:47.195Z,11.02
2023-05-19T10:25:20.119Z,9.70
2023-05-19T10:27:55.950Z,11.52
2023-05-19T10:30:29.813Z,10.40
2023-05-19T10:33:00.986Z,10.00
2023-05-19T10:35:40.101Z,8.38
2023-05-19T10:38:26.251Z,8.85
2023-05-19T10:41:07.451Z,10.95
2023-05-19T10:43:53.134Z,11.67
2023-05-19T10:46:25.517Z,9.18
2023-05-19T10:48:53.447Z,10.85
2023-05-19T10:51:21.101Z,13.15
2023-05-19T10:53:50.185Z,10.18
2023-05-19T10:56:36.216Z,10.68
2023-05-19T10:59:03.995Z,8.43
2023-05-19T11:01:37.268Z,9.70
2023-05-19T11:04:12.419Z,6.95
2023-05-19T11:06:54.239Z,7.15
2023-05-19T11:09:34.166Z,6.25
2023-05-19T11:12:08.552Z,7.22
2023-05-19T11:14:36.365Z,4.38
2023-05-19T11:17:05.682Z,2.63
2023-05-19T11:19:35.756Z,2.90
2023-05-19T11:22:12.922Z,4.75
2023-05-19T11:24:56.074Z,2.85
2023-05-19T11:27:31.964Z,4.65
2023-05-19T11:30:15.212Z,4.60
2023-05-19T11:32:43.092Z,4.70
2023-05-19T11:35:11.265Z,4.70
2023-05-19T11:37:40.590Z,5.93
2023-05-19T11:40:09.201Z,6.43
2023-05-19T11:42:37.339Z,8.57
2023-05-19T11:45:06.226Z,8.10
2023-05-19T11:47:42.097Z,5.90
2023-05-19T11:50:14.863Z,4.68
2023-05-19T11:52:45.386Z,4.38
2023-05-19T11:55:17.068Z,7.47
2023-05-19T12:00:39.570Z,6.88
2023-05-19T12:03:08.674Z,5.90
2023-05-19T12:05:46.667Z,5.85
2023-05-19T12:08:16.582Z,8.75
2023-05-19T12:10:44.313Z,5.28
2023-05-19T12:13:12.584Z,4.72
2023-05-19T12:15:39.907Z,3.55
2023-05-19T12:18:07.934Z,4.28
2023-05-19T12:20:36.322Z,4.13
2023-05-19T12:23:04.212Z,4.82
2023-05-19T12:25:32.608Z,6.70
2023-05-19T12:28:03.316Z,4.90
2023-05-19T12:30:33.673Z,6.13
2023-05-19T12:33:02.824Z,9.23
2023-05-19T12:35:36.300Z,5.32
2023-05-19T12:38:07.597Z,4.55
2023-05-19T12:40:36.477Z,9.80
2023-05-19T12:43:04.532Z,4.50
2023-05-19T12:45:36.298Z,5.40
2023-05-19T12:48:05.663Z,3.85
2023-05-19T12:50:34.473Z,4.88
2023-05-19T12:53:02.490Z,3.67
2023-05-19T12:55:30.653Z,7.10
2023-05-19T12:57:58.767Z,5.25
2023-05-19T13:00:28.639Z,4.88
2023-05-19T13:03:02.166Z,4.65
2023-05-19T13:05:33.779Z,7.00
2023-05-19T13:08:11.861Z,4.63
2023-05-19T13:10:41.401Z,5.10
2023-05-19T13:13:09.882Z,3.53
2023-05-19T13:15:42.761Z,4.32
2023-05-19T13:18:20.712Z,6.57
2023-05-19T13:20:50.283Z,3.67
2023-05-19T13:23:17.745Z,4.70
2023-05-19T13:25:45.055Z,4.32
2023-05-19T13:28:13.895Z,5.35
2023-05-19T13:30:41.935Z,3.47
2023-05-19T13:33:09.821Z,5.43
2023-05-19T13:35:37.956Z,4.35
2023-05-19T13:38:07.040Z,3.80
2023-05-19T13:40:35.320Z,6.25
2023-05-19T13:43:04.125Z,5.05
2023-05-19T13:45:34.718Z,5.43
2023-05-19T13:48:02.341Z,3.83
2023-05-19T13:50:29.629Z,7.05
2023-05-19T13:52:56.889Z,4.32
2023-05-19T13:55:24.426Z,3.85
2023-05-19T13:57:53.350Z,4.65
2023-05-19T14:00:21.475Z,4.25
2023-05-19T14:02:50.181Z,4.78
2023-05-19T14:05:17.678Z,8.07
2023-05-19T14:07:45.294Z,5.78
2023-05-19T14:10:12.737Z,6.72
2023-05-19T14:12:55.095Z,4.93
2023-05-19T14:15:27.849Z,3.53
2023-05-19T14:17:55.403Z,5.22
2023-05-19T14:20:22.871Z,7.40
2023-05-19T14:22:50.324Z,5.30
2023-05-19T14:25:18.109Z,5.25
2023-05-19T14:27:45.347Z,5.05
2023-05-19T14:30:12.928Z,4.65
2023-05-19T14:32:40.410Z,6.60
2023-05-19T14:35:08.012Z,4.43
2023-05-19T14:37:35.227Z,7.25
2023-05-19T14:40:03.590Z,4.95
2023-05-19T14:42:31.254Z,4.35
2023-05-19T14:44:58.740Z,3.40
2023-05-19T14:47:27.099Z,6.57
2023-05-19T14:49:54.722Z,4.63
2023-05-19T14:52:22.877Z,5.38
2023-05-19T14:54:52.491Z,8.02
2023-05-19T14:57:19.906Z,2.85
2023-05-19T14:59:47.257Z,4.25
2023-05-19T15:02:14.725Z,4.43
2023-05-19T15:04:41.999Z,6.53
2023-05-19T15:07:10.736Z,3.55
2023-05-19T15:09:38.642Z,4.80
2023-05-19T15:12:06.119Z,6.07
2023-05-19T15:14:33.750Z,3.95
2023-05-19T15:17:00.983Z,2.70
2023-05-19T15:19:28.363Z,6.00
2023-05-19T15:21:55.877Z,5.18
2023-05-19T15:24:23.346Z,4.30
2023-05-19T15:26:52.258Z,3.85
2023-05-19T15:29:19.639Z,4.97
2023-05-19T15:31:52.084Z,5.47
2023-05-19T15:34:23.258Z,4.88
2023-05-19T15:36:50.562Z,5.00
2023-05-19T15:39:18.176Z,4.75
2023-05-19T15:41:45.747Z,3.40
2023-05-19T15:44:13.099Z,5.30
2023-05-19T15:46:40.723Z,3.70
2023-05-19T15:49:08.230Z,5.22
2023-05-19T15:51:35.768Z,4.32
2023-05-19T15:54:06.125Z,7.47
2023-05-19T15:56:34.970Z,7.40
2023-05-19T15:59:03.670Z,4.10
2023-05-19T16:01:33.514Z,3.50
2023-05-19T16:04:03.970Z,3.42
2023-05-19T16:06:31.760Z,7.00
2023-05-19T16:08:59.233Z,3.53
2023-05-19T16:11:26.923Z,3.53
2023-05-19T16:13:54.667Z,4.22
2023-05-19T16:16:22.228Z,4.40
2023-05-19T16:18:49.958Z,3.53
2023-05-19T16:21:17.741Z,3.35
2023-05-19T16:23:45.204Z,8.30
2023-05-19T16:26:12.765Z,4.68
2023-05-19T16:28:40.318Z,4.78
2023-05-19T16:31:07.585Z,5.10
2023-05-19T16:33:36.975Z,5.38
2023-05-19T16:36:05.432Z,9.65
2023-05-19T16:38:34.130Z,5.53
2023-05-19T16:41:01.534Z,3.80
2023-05-19T16:43:29.227Z,10.65
2023-05-19T16:45:57.305Z,11.20
2023-05-19T16:48:24.770Z,75.32
2023-05-19T16:50:52.040Z,47.85
2023-05-19T16:53:19.401Z,14.27
2023-05-19T16:55:46.745Z,9.32
2023-05-19T16:58:14.127Z,16.80
2023-05-19T17:00:41.475Z,7.47
2023-05-19T17:03:09.157Z,4.50
2023-05-19T17:05:38.369Z,4.90
2023-05-19T17:08:06.333Z,6.72
2023-05-19T17:10:34.024Z,3.70
2023-05-19T17:13:01.903Z,4.65
2023-05-19T17:15:31.608Z,3.35
2023-05-19T17:17:59.757Z,5.97
2023-05-19T17:20:27.575Z,5.60
2023-05-19T17:22:55.339Z,5.78
2023-05-19T17:25:23.211Z,8.20
2023-05-19T17:27:52.479Z,5.25
2023-05-19T17:30:20.071Z,4.80
2023-05-19T17:32:47.950Z,3.17
2023-05-19T17:35:15.783Z,8.52
2023-05-19T17:37:43.154Z,5.38
2023-05-19T17:40:11.544Z,4.95
2023-05-19T17:42:38.932Z,5.15
2023-05-19T17:45:07.729Z,3.15
2023-05-19T17:47:35.209Z,4.07
2023-05-19T17:50:02.732Z,4.88
2023-05-19T17:52:30.361Z,8.02
2023-05-19T17:54:58.246Z,3.40
2023-05-19T17:57:28.328Z,5.13
2023-05-19T17:59:56.424Z,4.28
2023-05-19T18:02:24.525Z,3.35
2023-05-19T18:04:52.977Z,4.57
2023-05-19T18:07:22.376Z,6.18
2023-05-19T18:09:52.497Z,7.63
2023-05-19T18:12:20.473Z,5.28
2023-05-19T18:14:48.347Z,5.20
2023-05-19T18:17:16.588Z,6.45
2023-05-19T18:19:44.666Z,4.93
2023-05-19T18:22:13.704Z,6.00
2023-05-19T18:24:42.233Z,3.88
2023-05-19T18:27:10.218Z,4.72
2023-05-19T18:29:38.338Z,5.90
2023-05-19T18:32:07.154Z,5.53
2023-05-19T18:34:35.473Z,4.63
2023-05-19T18:37:03.867Z,4.80
2023-05-19T18:39:32.055Z,4.25
2023-05-19T18:42:00.182Z,7.40
2023-05-19T18:44:29.081Z,5.45
2023-05-19T18:46:57.229Z,5.63
2023-05-19T18:49:25.759Z,3.88
2023-05-19T18:51:54.084Z,4.57
2023-05-19T18:54:22.747Z,3.35
2023-05-19T18:57:23.732Z,4.68
2023-05-19T19:00:00.303Z,6.45
2023-05-19T19:05:53.076Z,7.75
2023-05-19T19:08:33.917Z,5.28
2023-05-19T19:11:06.149Z,5.80
2023-05-19T19:13:48.832Z,4.07
2023-05-19T19:16:30.463Z,4.95
2023-05-19T19:19:09.496Z,6.35
2023-05-19T19:21:53.497Z,6.97
2023-05-19T19:24:35.950Z,4.78
2023-05-19T19:27:23.269Z,5.03
2023-05-19T19:29:56.900Z,4.25
2023-05-19T19:33:20.200Z,3.53
2023-05-19T19:35:59.634Z,5.38
2023-05-19T19:38:40.314Z,4.30
2023-05-19T19:41:26.213Z,3.72
2023-05-19T19:44:16.282Z,3.28
2023-05-19T19:46:51.427Z,5.93
2023-05-19T19:49:53.044Z,5.05
2023-05-19T19:52:46.248Z,3.10
2023-05-19T19:55:37.922Z,3.03
2023-05-19T19:58:13.269Z,7.45
2023-05-19T20:00:52.948Z,5.75
2023-05-19T20:03:28.628Z,4.78
2023-05-19T20:06:03.140Z,3.20
2023-05-19T20:08:38.202Z,4.18
2023-05-19T20:11:17.648Z,6.97
2023-05-19T20:14:00.736Z,3.95
2023-05-19T20:16:40.204Z,4.03
2023-05-19T20:19:29.516Z,5.40
2023-05-19T20:22:11.922Z,5.25
2023-05-19T20:24:53.389Z,5.32
2023-05-19T20:27:27.847Z,6.13
2023-05-19T20:30:00.986Z,6.60
2023-05-19T20:32:55.251Z,3.47
2023-05-19T20:35:45.512Z,4.50
2023-05-19T20:38:23.175Z,5.90
2023-05-19T20:41:33.567Z,4.22
2023-05-19T20:44:19.836Z,4.38
2023-05-19T20:47:07.699Z,5.75
2023-05-19T20:50:02.330Z,3.75
2023-05-19T20:53:06.544Z,7.03
2023-05-19T20:55:40.829Z,7.57
2023-05-19T21:01:08.052Z,6.07
2023-05-19T21:06:51.705Z,3.47
2023-05-19T21:09:43.262Z,3.00
2023-05-19T21:12:31.604Z,4.85
2023-05-19T21:15:11.530Z,8.02
2023-05-19T21:17:46.018Z,4.88
2023-05-19T21:20:28.664Z,6.85
2023-05-19T21:23:03.397Z,4.72
2023-05-19T21:25:43.376Z,4.35
2023-05-19T21:28:19.574Z,6.95
2023-05-19T21:30:53.394Z,3.63
2023-05-19T21:33:28.653Z,3.55
2023-05-19T21:36:09.724Z,5.35
2023-05-19T21:38:47.565Z,4.65
2023-05-19T21:41:17.054Z,4.40
2023-05-19T21:43:59.185Z,4.47
2023-05-19T21:46:30.947Z,4.75
2023-05-19T21:49:16.646Z,5.57
2023-05-19T21:51:59.316Z,6.18
2023-05-19T21:54:59.675Z,6.05
2023-05-19T21:57:37.622Z,5.82
2023-05-19T22:00:21.445Z,5.07
2023-05-19T22:03:05.111Z,4.57
2023-05-19T22:05:40.396Z,6.13
2023-05-19T22:08:20.266Z,5.90
2023-05-19T22:11:27.930Z,5.82
2023-05-19T22:14:05.255Z,3.53
2023-05-19T22:17:01.227Z,3.42
2023-05-19T22:19:39.719Z,6.90
2023-05-19T22:22:24.033Z,3.33
2023-05-19T22:25:02.577Z,3.53
2023-05-19T22:27:54.861Z,6.57
2023-05-19T22:30:40.049Z,6.57
2023-05-19T22:33:20.241Z,4.53
2023-05-19T22:36:17.502Z,5.65
2023-05-19T22:39:13.720Z,7.05
2023-05-19T22:44:36.815Z,5.03
2023-05-19T22:47:26.802Z,4.47
2023-05-19T22:50:14.401Z,5.80
2023-05-19T22:56:05.421Z,4.95
2023-05-19T22:58:53.671Z,6.75
2023-05-19T23:01:26.484Z,6.35
2023-05-19T23:03:57.309Z,8.32
2023-05-19T23:06:30.406Z,11.18
2023-05-19T23:09:08.417Z,7.57
2023-05-19T23:11:46.192Z,6.38
2023-05-19T23:17:18.196Z,10.27
2023-05-19T23:19:53.152Z,5.10
2023-05-19T23:22:41.411Z,6.88
2023-05-19T23:25:26.496Z,4.38
2023-05-19T23:28:44.131Z,4.88
2023-05-19T23:31:27.928Z,6.45
2023-05-19T23:34:40.792Z,7.30
2023-05-19T23:37:21.776Z,5.95
2023-05-19T23:39:59.219Z,4.60
2023-05-19T23:42:38.796Z,5.40
2023-05-19T23:45:16.720Z,7.53
2023-05-19T23:50:49.302Z,5.85
2023-05-19T23:53:34.744Z,4.93
2023-05-19T23:56:11.971Z,4.35
2023-05-19T23:58:43.299Z,7.32
